LFOP/URO METAR and TAF weather

Enter ICAO airport designator
Station Type Date Time Source
LFOP METAR 2022/11/30 18:00 UTC NOAA

LFOP 301800Z AUTO 05007KT 8000 OVC007 05/04 Q1025 TEMPO 2000 BR OVC002


Station Type Date Time Source
LFOP Decoded METAR 2022/11/30 18:00 UTC NOAA

Rouen, France (LFOP) 49-23N 001-11E 157M
Nov 30, 2022 - 01:00 PM EST / 2022.11.30 1800 UTC
Wind: from the NE (050 degrees) at 8 MPH (7 KT):0
Visibility: 4 mile(s):0
Sky conditions: overcast
Temperature: 41 F (5 C)
Dew Point: 39 F (4 C)
Relative Humidity: 93%
Pressure (altimeter): 30.27 in. Hg (1025 hPa)
ob: LFOP 301800Z AUTO 05007KT 8000 OVC007 05/04 Q1025 TEMPO 2000 BR OVC002
cycle: 18

Station Type Date Time Source
LFOP TAF 2022/11/30 18:42 UTC NOAA

TAF LFOP 301700Z 3018/0118 05007KT 7000 OVC007 PROB40
TEMPO 3018/0111 2000 BR OVC002
BECMG 0111/0114 BKN011
TEMPO 0114/0118 SCT017

Example: see airport list